createdAt,value
2019-05-06T00:01:21.317Z,62.44
2019-05-06T00:03:54.185Z,62.58
2019-05-06T00:06:26.127Z,62.03
2019-05-06T00:08:57.836Z,61.90
2019-05-06T00:11:29.571Z,61.39
2019-05-06T00:14:03.905Z,62.02
2019-05-06T00:16:35.942Z,61.74
2019-05-06T00:19:07.651Z,61.46
2019-05-06T00:21:39.305Z,61.55
2019-05-06T00:24:11.305Z,61.80
2019-05-06T00:27:07.853Z,61.45
2019-05-06T00:29:39.558Z,61.74
2019-05-06T00:32:11.274Z,61.41
2019-05-06T00:34:43.689Z,61.85
2019-05-06T00:37:15.755Z,62.16
2019-05-06T00:39:54.964Z,62.29
2019-05-06T00:42:44.775Z,62.51
2019-05-06T00:45:16.462Z,62.42
2019-05-06T00:47:48.185Z,62.18
2019-05-06T00:50:19.862Z,62.49
2019-05-06T00:52:53.972Z,62.40
2019-05-06T00:55:25.763Z,62.70
2019-05-06T00:57:58.458Z,62.67
2019-05-06T01:00:34.190Z,62.32
2019-05-06T01:03:05.846Z,62.37
2019-05-06T01:05:37.605Z,61.93
2019-05-06T01:08:09.260Z,61.64
2019-05-06T01:10:40.999Z,61.80
2019-05-06T01:13:35.858Z,62.30
2019-05-06T01:16:09.024Z,61.96
2019-05-06T01:18:40.829Z,62.03
2019-05-06T01:21:14.511Z,62.42
2019-05-06T01:23:46.442Z,62.59
2019-05-06T01:26:18.327Z,61.75
2019-05-06T01:28:51.088Z,61.31
2019-05-06T01:31:26.032Z,61.61
2019-05-06T01:33:58.033Z,61.39
2019-05-06T01:36:29.686Z,61.06
2019-05-06T01:39:29.442Z,61.22
2019-05-06T01:42:13.883Z,61.13
2019-05-06T01:44:45.943Z,61.90
2019-05-06T01:47:17.648Z,61.42
2019-05-06T01:49:49.340Z,61.06
2019-05-06T01:52:21.236Z,61.22
2019-05-06T01:54:54.230Z,61.43
2019-05-06T01:57:26.274Z,61.46
2019-05-06T01:59:57.985Z,61.32
2019-05-06T02:02:30.049Z,60.76
2019-05-06T02:05:04.571Z,60.88
2019-05-06T02:07:35.555Z,61.12
2019-05-06T02:10:07.640Z,61.34
2019-05-06T02:12:49.902Z,61.23
2019-05-06T02:15:23.394Z,61.76
2019-05-06T02:17:55.312Z,61.67
2019-05-06T02:20:27.110Z,60.89
2019-05-06T02:23:09.672Z,61.95
2019-05-06T02:25:45.366Z,61.72
2019-05-06T02:28:17.130Z,61.48
2019-05-06T02:31:06.249Z,61.85
2019-05-06T02:33:56.769Z,61.78
2019-05-06T02:36:36.678Z,63.15
2019-05-06T02:39:08.378Z,62.88
2019-05-06T02:41:42.799Z,62.43
2019-05-06T02:44:13.880Z,62.37
2019-05-06T02:46:48.624Z,61.58
2019-05-06T02:49:39.621Z,61.75
2019-05-06T02:52:14.055Z,62.24
2019-05-06T02:54:47.293Z,62.20
2019-05-06T02:57:23.513Z,62.18
2019-05-06T02:59:55.157Z,60.66
2019-05-06T03:02:41.878Z,61.41
2019-05-06T03:05:04.231Z,61.06
2019-05-06T03:07:37.656Z,61.13
2019-05-06T03:10:09.537Z,61.63
2019-05-06T03:12:43.068Z,61.45
2019-05-06T03:15:16.803Z,61.35
2019-05-06T03:17:49.037Z,61.02
2019-05-06T03:20:43.740Z,60.49
2019-05-06T03:23:15.058Z,59.95
2019-05-06T03:25:46.743Z,59.41
2019-05-06T03:28:18.406Z,59.83
2019-05-06T03:30:55.912Z,60.14
2019-05-06T03:33:47.828Z,59.95
2019-05-06T03:36:13.760Z,60.96
2019-05-06T03:38:33.535Z,60.63
2019-05-06T03:41:05.503Z,61.01
2019-05-06T03:43:39.832Z,61.14
2019-05-06T03:46:28.869Z,61.27
2019-05-06T03:49:03.836Z,61.42
2019-05-06T03:51:35.645Z,61.21
2019-05-06T03:54:07.352Z,61.01
2019-05-06T03:56:43.142Z,61.27
2019-05-06T03:59:13.785Z,61.96
2019-05-06T04:01:45.798Z,61.58
2019-05-06T04:04:17.843Z,61.13
2019-05-06T04:06:49.564Z,60.71
2019-05-06T04:09:23.978Z,60.86
2019-05-06T04:11:55.422Z,60.88
2019-05-06T04:14:28.271Z,61.63
2019-05-06T04:17:24.644Z,61.18
2019-05-06T04:20:05.757Z,61.08
2019-05-06T04:23:13.359Z,61.58
2019-05-06T04:25:58.391Z,62.24
2019-05-06T04:28:34.213Z,61.95
2019-05-06T04:31:07.872Z,61.42
2019-05-06T04:33:39.278Z,61.13
2019-05-06T04:36:13.136Z,61.24
2019-05-06T04:38:44.342Z,60.92
2019-05-06T04:41:16.008Z,60.66
2019-05-06T04:43:47.663Z,61.03
2019-05-06T04:46:19.385Z,60.83
2019-05-06T04:48:53.883Z,60.31
2019-05-06T04:51:25.074Z,60.51
2019-05-06T04:53:57.174Z,60.62
2019-05-06T04:56:28.910Z,60.88
2019-05-06T04:59:06.447Z,60.68
2019-05-06T05:01:37.714Z,60.54
2019-05-06T05:04:26.894Z,60.57
2019-05-06T05:06:43.208Z,60.75
2019-05-06T05:09:17.563Z,61.15
2019-05-06T05:11:56.915Z,61.43
2019-05-06T05:14:42.176Z,61.24
2019-05-06T05:17:34.323Z,61.45
2019-05-06T05:20:09.847Z,61.26
2019-05-06T05:22:44.030Z,61.33
2019-05-06T05:25:15.750Z,61.54
2019-05-06T05:27:47.457Z,62.05
2019-05-06T05:30:19.198Z,62.33
2019-05-06T05:32:52.072Z,62.12
2019-05-06T05:35:24.169Z,61.96
2019-05-06T05:37:57.185Z,61.97
2019-05-06T05:40:28.898Z,62.23
2019-05-06T05:43:08.231Z,62.10
2019-05-06T05:45:42.311Z,62.59
2019-05-06T05:48:23.581Z,62.67
2019-05-06T05:50:55.255Z,62.48
2019-05-06T05:53:27.044Z,62.15
2019-05-06T05:56:02.414Z,62.46
2019-05-06T05:58:33.709Z,62.19
2019-05-06T06:01:05.430Z,61.94
2019-05-06T06:03:37.147Z,62.21
2019-05-06T06:06:09.025Z,61.94
2019-05-06T06:08:43.128Z,62.06
2019-05-06T06:11:34.403Z,61.26
2019-05-06T06:17:12.965Z,60.99
2019-05-06T06:19:54.983Z,60.59
2019-05-06T06:22:28.043Z,60.03
2019-05-06T06:24:59.738Z,61.51
2019-05-06T06:28:11.957Z,62.31
2019-05-06T06:30:52.043Z,63.17
2019-05-06T06:33:23.868Z,62.26
2019-05-06T06:36:06.421Z,62.17
2019-05-06T06:38:54.799Z,61.78
2019-05-06T06:41:26.555Z,61.65
2019-05-06T06:44:02.670Z,61.66
2019-05-06T06:46:34.352Z,61.81
2019-05-06T06:49:07.001Z,62.36
2019-05-06T06:51:39.078Z,62.76
2019-05-06T06:54:12.321Z,62.35
2019-05-06T06:57:05.308Z,62.24
2019-05-06T06:59:43.489Z,61.93
2019-05-06T07:02:37.105Z,61.21
2019-05-06T07:05:27.535Z,61.12
2019-05-06T07:07:53.093Z,60.43
2019-05-06T07:10:43.546Z,59.99
2019-05-06T07:13:16.557Z,60.15
2019-05-06T07:15:52.025Z,60.38
2019-05-06T07:18:24.998Z,60.77
2019-05-06T07:21:18.863Z,60.04
2019-05-06T07:23:53.020Z,59.26
2019-05-06T07:26:28.126Z,58.89
2019-05-06T07:29:04.011Z,58.67
2019-05-06T07:31:33.715Z,58.75
2019-05-06T07:34:05.400Z,59.47
2019-05-06T07:36:37.105Z,58.83
2019-05-06T07:39:09.001Z,58.16
2019-05-06T07:41:53.630Z,58.67
2019-05-06T07:44:45.601Z,57.44
2019-05-06T07:47:25.186Z,57.20
2019-05-06T07:49:56.905Z,56.22
2019-05-06T07:52:28.625Z,56.99
2019-05-06T07:55:02.506Z,57.12
2019-05-06T07:57:34.288Z,56.11
2019-05-06T08:00:06.656Z,55.70
2019-05-06T08:02:38.320Z,54.27
2019-05-06T08:05:10.084Z,55.07
2019-05-06T08:07:42.397Z,55.31
2019-05-06T08:10:14.330Z,54.73
2019-05-06T08:12:48.938Z,54.39
2019-05-06T08:15:22.557Z,54.00
2019-05-06T08:17:54.066Z,54.39
2019-05-06T08:20:36.979Z,54.61
2019-05-06T08:23:32.544Z,54.81
2019-05-06T08:26:12.614Z,56.10
2019-05-06T08:28:41.375Z,55.16
2019-05-06T08:31:12.806Z,55.25
2019-05-06T08:33:44.638Z,54.46
2019-05-06T08:36:22.673Z,54.05
2019-05-06T08:38:59.580Z,53.90
2019-05-06T08:41:34.972Z,53.98
2019-05-06T08:44:06.771Z,53.78
2019-05-06T08:46:38.521Z,53.72
2019-05-06T08:49:12.306Z,53.00
2019-05-06T08:52:06.301Z,53.12
2019-05-06T08:54:43.360Z,53.38
2019-05-06T08:57:15.358Z,51.29
2019-05-06T08:59:48.735Z,52.30
2019-05-06T09:02:24.234Z,51.70
2019-05-06T09:04:55.916Z,53.02
2019-05-06T09:07:27.604Z,52.10
2019-05-06T09:09:59.399Z,52.52
2019-05-06T09:12:32.955Z,52.51
2019-05-06T09:15:05.519Z,51.91
2019-05-06T09:17:37.406Z,50.44
2019-05-06T09:20:09.168Z,49.53
2019-05-06T09:22:43.620Z,48.52
2019-05-06T09:25:16.537Z,49.75
2019-05-06T09:28:04.830Z,47.77
2019-05-06T09:30:44.539Z,48.40
2019-05-06T09:33:22.782Z,48.27
2019-05-06T09:35:54.944Z,48.71
2019-05-06T09:38:26.708Z,49.15
2019-05-06T09:40:58.564Z,49.81
2019-05-06T09:43:32.700Z,52.26
2019-05-06T09:46:03.898Z,52.31
2019-05-06T09:49:13.053Z,52.25
2019-05-06T09:51:44.702Z,52.83
2019-05-06T09:54:42.798Z,50.16
2019-05-06T09:57:18.603Z,48.66
2019-05-06T09:59:52.515Z,47.63
2019-05-06T10:02:23.926Z,47.67
2019-05-06T10:04:55.759Z,46.99
2019-05-06T10:07:27.506Z,46.70
2019-05-06T10:09:59.153Z,46.19
2019-05-06T10:12:32.862Z,45.47
2019-05-06T10:15:05.523Z,45.22
2019-05-06T10:17:38.705Z,47.05
2019-05-06T10:20:12.434Z,46.73
2019-05-06T10:22:47.276Z,46.64
2019-05-06T10:25:22.656Z,47.29
2019-05-06T10:27:57.310Z,46.37
2019-05-06T10:30:29.232Z,47.50
2019-05-06T10:33:02.231Z,46.76
2019-05-06T10:35:33.939Z,46.33
2019-05-06T10:38:15.357Z,44.67
2019-05-06T10:40:59.664Z,44.02
2019-05-06T10:43:32.665Z,45.36
2019-05-06T10:46:05.199Z,45.15
2019-05-06T10:48:36.889Z,46.29
2019-05-06T10:51:22.895Z,46.40
2019-05-06T10:53:54.610Z,46.93
2019-05-06T10:56:53.972Z,47.83
2019-05-06T10:59:22.478Z,45.64
2019-05-06T11:01:58.607Z,46.54
2019-05-06T11:04:33.097Z,46.48
2019-05-06T11:07:06.274Z,45.89
2019-05-06T11:09:37.921Z,46.43
2019-05-06T11:12:09.623Z,45.28
2019-05-06T11:14:41.427Z,41.59
2019-05-06T11:17:14.696Z,44.35
2019-05-06T11:19:46.402Z,41.22
2019-05-06T11:22:21.192Z,39.37
2019-05-06T11:24:51.506Z,40.26
2019-05-06T11:27:32.138Z,39.18
2019-05-06T11:30:02.288Z,38.53
2019-05-06T11:32:42.092Z,37.75
2019-05-06T11:35:19.666Z,37.55
2019-05-06T11:38:12.021Z,40.00
2019-05-06T11:40:44.992Z,42.02
2019-05-06T11:43:18.058Z,43.51
2019-05-06T11:45:51.999Z,41.26
2019-05-06T11:48:23.450Z,42.67
2019-05-06T11:50:58.748Z,43.09
2019-05-06T11:53:32.563Z,44.27
2019-05-06T11:56:05.931Z,42.55
2019-05-06T11:58:42.738Z,44.38
2019-05-06T12:01:38.112Z,44.01
2019-05-06T12:04:09.809Z,42.82
2019-05-06T12:06:42.308Z,43.62
2019-05-06T12:09:17.100Z,43.86
2019-05-06T12:11:48.044Z,45.09
2019-05-06T12:14:22.684Z,43.64
2019-05-06T12:16:55.240Z,41.97
2019-05-06T12:19:27.056Z,41.27
2019-05-06T12:21:58.774Z,43.43
2019-05-06T12:24:30.512Z,44.06
2019-05-06T12:27:03.262Z,46.27
2019-05-06T12:29:38.026Z,43.82
2019-05-06T12:32:30.278Z,42.68
2019-05-06T12:35:04.162Z,43.94
2019-05-06T12:37:36.928Z,43.03
2019-05-06T12:40:08.834Z,41.89
2019-05-06T12:42:44.332Z,42.20
2019-05-06T12:45:25.106Z,40.25
2019-05-06T12:48:03.266Z,40.98
2019-05-06T12:50:35.330Z,44.59
2019-05-06T12:53:07.079Z,44.36
2019-05-06T12:55:38.799Z,43.08
2019-05-06T12:58:13.380Z,41.44
2019-05-06T13:00:44.932Z,42.79
2019-05-06T13:03:16.842Z,42.35
2019-05-06T13:05:52.120Z,42.96
2019-05-06T13:08:32.418Z,44.31
2019-05-06T13:10:59.680Z,43.20
2019-05-06T13:13:33.207Z,43.17
2019-05-06T13:16:05.399Z,44.17
2019-05-06T13:18:37.133Z,44.44
2019-05-06T13:21:08.897Z,43.81
2019-05-06T13:23:44.966Z,44.19
2019-05-06T13:26:16.641Z,42.62
2019-05-06T13:28:53.175Z,44.09
2019-05-06T13:31:25.892Z,42.86
2019-05-06T13:34:15.453Z,42.43
2019-05-06T13:36:47.513Z,40.66
2019-05-06T13:39:19.170Z,42.43
2019-05-06T13:41:52.838Z,43.89
2019-05-06T13:44:26.058Z,42.52
2019-05-06T13:46:57.855Z,41.45
2019-05-06T13:49:52.201Z,42.19
2019-05-06T13:52:27.779Z,43.04
2019-05-06T13:54:59.512Z,41.20
2019-05-06T13:57:32.088Z,41.94
2019-05-06T14:00:06.629Z,40.29
2019-05-06T14:02:47.659Z,41.16
2019-05-06T14:05:19.355Z,43.59
2019-05-06T14:07:52.724Z,41.13
2019-05-06T14:10:24.345Z,41.61
2019-05-06T14:12:56.043Z,41.08
2019-05-06T14:15:27.778Z,42.83
2019-05-06T14:17:59.507Z,40.78
2019-05-06T14:20:33.496Z,42.95
2019-05-06T14:23:05.232Z,41.75
2019-05-06T14:25:55.774Z,40.52
2019-05-06T14:28:33.241Z,40.41
2019-05-06T14:31:13.018Z,41.55
2019-05-06T14:33:46.305Z,42.31
2019-05-06T14:36:17.989Z,42.94
2019-05-06T14:38:53.340Z,40.82
2019-05-06T14:41:27.479Z,42.22
2019-05-06T14:44:02.678Z,42.02
2019-05-06T14:46:51.744Z,42.91
2019-05-06T14:49:25.042Z,41.36
2019-05-06T14:51:56.723Z,42.30
2019-05-06T14:54:28.429Z,41.48
2019-05-06T14:57:18.956Z,41.37
2019-05-06T14:59:55.432Z,41.21
2019-05-06T15:02:28.207Z,40.67
2019-05-06T15:05:02.767Z,41.85
2019-05-06T15:07:33.572Z,41.55
2019-05-06T15:10:19.046Z,43.01
2019-05-06T15:12:38.676Z,44.20
2019-05-06T15:15:12.125Z,44.17
2019-05-06T15:17:43.797Z,43.91
2019-05-06T15:20:15.470Z,45.24
2019-05-06T15:22:47.159Z,44.56
2019-05-06T15:25:18.811Z,44.25
2019-05-06T15:27:50.534Z,44.55
2019-05-06T15:30:29.519Z,44.29
2019-05-06T15:33:02.528Z,44.60
2019-05-06T15:35:52.504Z,44.86
2019-05-06T15:38:26.870Z,44.56
2019-05-06T15:40:58.590Z,45.40
2019-05-06T15:43:30.261Z,45.45
2019-05-06T15:46:03.292Z,45.40
2019-05-06T15:48:35.463Z,46.27
2019-05-06T15:51:07.191Z,44.71
2019-05-06T15:53:38.962Z,44.75
2019-05-06T15:56:12.342Z,45.63
2019-05-06T15:58:44.010Z,45.08
2019-05-06T16:01:15.767Z,45.56
2019-05-06T16:03:47.599Z,45.17
2019-05-06T16:06:19.282Z,45.68
2019-05-06T16:08:52.752Z,45.83
2019-05-06T16:11:24.968Z,45.34
2019-05-06T16:13:56.685Z,45.26
2019-05-06T16:16:28.721Z,45.05
2019-05-06T16:19:03.822Z,44.81
2019-05-06T16:21:33.824Z,45.28
2019-05-06T16:24:19.221Z,45.58
2019-05-06T16:26:52.673Z,45.45
2019-05-06T16:29:35.709Z,45.57
2019-05-06T16:32:10.698Z,45.49
2019-05-06T16:34:43.092Z,45.74
2019-05-06T16:37:14.860Z,45.60
2019-05-06T16:39:46.561Z,46.30
2019-05-06T16:42:18.278Z,46.46
2019-05-06T16:44:52.744Z,45.74
2019-05-06T16:47:39.756Z,47.19
2019-05-06T16:50:13.199Z,46.16
2019-05-06T16:52:45.884Z,46.94
2019-05-06T16:55:24.217Z,47.31
2019-05-06T16:58:04.590Z,47.17
2019-05-06T17:00:38.515Z,47.04
2019-05-06T17:03:23.063Z,46.05
2019-05-06T17:06:18.837Z,47.32
2019-05-06T17:08:52.959Z,46.08
2019-05-06T17:11:33.373Z,46.12
2019-05-06T17:14:03.083Z,45.76
2019-05-06T17:16:36.800Z,46.09
2019-05-06T17:19:12.499Z,44.97
2019-05-06T17:21:42.831Z,46.11
2019-05-06T17:24:14.559Z,46.50
2019-05-06T17:26:46.976Z,46.99
2019-05-06T17:29:26.748Z,47.47
2019-05-06T17:32:23.890Z,46.88
2019-05-06T17:34:57.683Z,47.00
2019-05-06T17:38:03.944Z,47.67
2019-05-06T17:40:35.858Z,48.09
2019-05-06T17:43:09.564Z,47.80
2019-05-06T17:46:01.704Z,49.00
2019-05-06T17:49:03.139Z,48.14
2019-05-06T17:51:42.551Z,47.84
2019-05-06T17:54:15.322Z,48.30
2019-05-06T17:56:47.071Z,48.19
2019-05-06T17:59:18.756Z,47.83
2019-05-06T18:01:53.149Z,47.57
2019-05-06T18:04:24.969Z,47.80
2019-05-06T18:06:56.620Z,47.31
2019-05-06T18:09:28.446Z,47.94
2019-05-06T18:12:02.913Z,48.54
2019-05-06T18:14:34.113Z,49.82
2019-05-06T18:17:05.796Z,50.08
2019-05-06T18:19:39.755Z,50.89
2019-05-06T18:22:13.140Z,50.73
2019-05-06T18:24:45.056Z,50.20
2019-05-06T18:27:17.545Z,50.75
2019-05-06T18:29:49.247Z,50.21
2019-05-06T18:32:23.174Z,51.06
2019-05-06T18:34:54.362Z,51.15
2019-05-06T18:37:26.351Z,50.33
2019-05-06T18:39:58.080Z,50.46
2019-05-06T18:42:29.900Z,51.51
2019-05-06T18:45:02.741Z,52.32
2019-05-06T18:47:34.578Z,52.10
2019-05-06T18:50:06.556Z,51.54
2019-05-06T18:52:38.392Z,52.35
2019-05-06T18:55:12.531Z,51.72
2019-05-06T18:57:44.253Z,53.60
2019-05-06T19:00:15.980Z,53.49
2019-05-06T19:02:47.741Z,53.22
2019-05-06T19:05:26.957Z,53.95
2019-05-06T19:07:57.459Z,53.70
2019-05-06T19:10:34.776Z,54.33
2019-05-06T19:13:08.679Z,54.32
2019-05-06T19:15:39.933Z,54.85
2019-05-06T19:18:12.893Z,55.04
2019-05-06T19:20:44.961Z,54.74
2019-05-06T19:23:16.649Z,54.63
2019-05-06T19:25:48.488Z,55.15
2019-05-06T19:28:22.016Z,54.86
2019-05-06T19:30:55.721Z,56.08
2019-05-06T19:33:27.463Z,55.31
2019-05-06T19:35:59.313Z,56.35
2019-05-06T19:38:33.525Z,56.59
2019-05-06T19:41:05.901Z,56.51
2019-05-06T19:43:37.879Z,56.72
2019-05-06T19:46:11.972Z,56.24
2019-05-06T19:48:43.482Z,56.77
2019-05-06T19:51:15.187Z,56.75
2019-05-06T19:53:47.121Z,57.29
2019-05-06T19:56:18.838Z,58.17
2019-05-06T19:58:52.544Z,57.92
2019-05-06T20:01:24.012Z,57.17
2019-05-06T20:03:55.732Z,57.42
2019-05-06T20:06:55.548Z,56.97
2019-05-06T20:09:44.470Z,57.22
2019-05-06T20:12:23.648Z,57.02
2019-05-06T20:14:58.351Z,56.85
2019-05-06T20:17:30.344Z,57.50
2019-05-06T20:20:03.001Z,57.37
2019-05-06T20:22:34.744Z,57.43
2019-05-06T20:25:06.632Z,57.30
2019-05-06T20:27:38.334Z,57.39
2019-05-06T20:30:11.585Z,57.57
2019-05-06T20:32:44.206Z,57.56
2019-05-06T20:35:15.923Z,57.49
2019-05-06T20:37:47.808Z,57.42
2019-05-06T20:40:19.644Z,56.93
2019-05-06T20:42:53.648Z,56.61
2019-05-06T20:45:25.358Z,56.46
2019-05-06T20:47:57.047Z,56.50
2019-05-06T20:50:29.199Z,57.71
2019-05-06T20:53:00.956Z,57.98
2019-05-06T20:55:35.761Z,57.35
2019-05-06T20:58:07.758Z,57.40
2019-05-06T21:00:40.017Z,57.52
2019-05-06T21:03:12.226Z,57.84
2019-05-06T21:05:44.144Z,57.80
2019-05-06T21:08:15.918Z,58.22
2019-05-06T21:10:49.829Z,58.17
2019-05-06T21:13:29.456Z,58.44
2019-05-06T21:15:56.276Z,58.98
2019-05-06T21:18:27.947Z,58.89
2019-05-06T21:21:02.086Z,58.64
2019-05-06T21:23:35.778Z,58.63
2019-05-06T21:26:07.508Z,58.48
2019-05-06T21:28:39.178Z,58.74
2019-05-06T21:31:12.485Z,58.63
2019-05-06T21:33:44.685Z,59.14
2019-05-06T21:36:16.447Z,58.62
2019-05-06T21:38:48.459Z,58.97
2019-05-06T21:41:21.998Z,59.43
2019-05-06T21:43:55.485Z,59.14
2019-05-06T21:46:27.157Z,59.34
2019-05-06T21:48:58.916Z,58.88
2019-05-06T21:51:32.716Z,58.27
2019-05-06T21:54:04.217Z,58.79
2019-05-06T21:56:35.891Z,58.93
2019-05-06T21:59:08.710Z,58.67
2019-05-06T22:01:42.987Z,58.44
2019-05-06T22:04:22.967Z,59.04
2019-05-06T22:06:54.078Z,58.75
2019-05-06T22:09:25.739Z,59.27
2019-05-06T22:11:57.388Z,59.22
2019-05-06T22:14:29.061Z,59.65
2019-05-06T22:17:03.849Z,60.06
2019-05-06T22:19:34.108Z,59.78
2019-05-06T22:22:07.780Z,59.40
2019-05-06T22:24:55.026Z,59.91
2019-05-06T22:27:22.800Z,60.03
2019-05-06T22:29:54.504Z,59.65
2019-05-06T22:32:26.164Z,60.08
2019-05-06T22:34:57.851Z,60.55
2019-05-06T22:37:33.143Z,60.78
2019-05-06T22:40:08.386Z,60.27
2019-05-06T22:42:40.065Z,59.57
2019-05-06T22:45:12.573Z,59.96
2019-05-06T22:47:47.395Z,60.63
2019-05-06T22:50:19.042Z,60.75
2019-05-06T22:52:58.063Z,60.48
2019-05-06T22:55:32.467Z,60.05
2019-05-06T22:58:04.160Z,60.18
2019-05-06T23:00:37.514Z,60.58
2019-05-06T23:03:13.876Z,60.38
2019-05-06T23:05:52.685Z,60.30
2019-05-06T23:08:26.744Z,60.25
2019-05-06T23:10:57.727Z,60.44
2019-05-06T23:13:29.852Z,60.83
2019-05-06T23:16:02.808Z,60.81
2019-05-06T23:18:37.043Z,60.95
2019-05-06T23:21:08.682Z,60.80
2019-05-06T23:23:40.417Z,60.77
2019-05-06T23:26:22.850Z,60.79
2019-05-06T23:28:54.904Z,61.62
2019-05-06T23:31:26.595Z,61.14
2019-05-06T23:33:58.258Z,62.25
2019-05-06T23:36:52.960Z,61.24
2019-05-06T23:40:03.449Z,61.14
2019-05-06T23:43:12.648Z,61.08
2019-05-06T23:46:19.886Z,61.58
2019-05-06T23:49:27.065Z,61.28
2019-05-06T23:52:34.300Z,61.17
2019-05-06T23:55:42.058Z,61.64
2019-05-06T23:58:14.715Z,61.48
